Time;durP1;ratioP1;P1;durP2;ratioP2;P2;SDS_P1;SDS_P2;PMS_P1;PMS_P2;Temp;Humidity;BMP_temperature;BMP_pressure;BME280_temperature;BME280_humidity;BME280_pressure;Samples;Min_cycle;Max_cycle;Signal;HPM_P1;HPM_P2
2023/06/29 06:50:46;;;;;;;9.10;2.40;;;;;;;21.31;52.06;96526.34;2084004;28;20565;-57
2023/06/29 06:52:52;;;;;;;10.82;2.50;;;;;;;21.25;52.46;96532.22;2101333;27;20562;-57
2023/06/29 06:54:59;;;;;;;6.95;2.13;;;;;;;21.59;51.54;96532.69;2085221;28;20602;-57
2023/06/29 06:57:11;;;;;;;11.23;2.30;;;;;;;21.45;53.27;96535.72;2099536;27;21584;-57
2023/06/29 06:58:13;;;;;;;5.43;2.35;;;;;;;21.48;53.49;96538.94;2095270;28;20195;-58
2023/06/29 07:00:19;;;;;;;11.93;3.05;;;;;;;21.92;52.19;96535.03;2084450;28;21127;-57
2023/06/29 07:01:21;;;;;;;6.10;2.25;;;;;;;21.76;52.76;96533.78;2081002;28;20195;-57
2023/06/29 07:02:23;;;;;;;6.10;2.10;;;;;;;21.93;51.34;96526.91;2082816;28;20721;-57
2023/06/29 07:03:25;;;;;;;7.25;2.50;;;;;;;21.87;52.64;96530.13;2080213;28;20205;-57
2023/06/29 07:04:27;;;;;;;5.25;2.13;;;;;;;22.17;51.73;96537.09;2071541;28;20696;-58
2023/06/29 07:05:29;;;;;;;5.75;2.53;;;;;;;21.96;51.90;96531.94;2072694;28;20201;-57
2023/06/29 07:06:33;;;;;;;10.07;2.50;;;;;;;22.24;51.67;96533.84;2072379;28;20288;-58
2023/06/29 07:07:35;;;;;;;7.22;2.60;;;;;;;22.26;50.30;96542.50;2067928;28;20201;-58
2023/06/29 07:08:36;;;;;;;6.88;2.45;;;;;;;22.23;51.36;96532.16;2066444;28;20225;-57
2023/06/29 07:09:38;;;;;;;4.80;2.22;;;;;;;22.48;50.89;96528.06;2067099;28;20244;-58
2023/06/29 07:10:40;;;;;;;5.00;2.20;;;;;;;22.68;49.85;96531.47;2068468;28;20194;-58
2023/06/29 07:11:42;;;;;;;8.63;2.08;;;;;;;22.22;50.52;96527.81;2071437;28;20711;-58
2023/06/29 07:12:43;;;;;;;5.90;2.15;;;;;;;22.47;50.30;96526.38;2074206;28;20292;-57
2023/06/29 07:13:45;;;;;;;10.48;2.90;;;;;;;22.54;50.53;96526.63;2072737;28;20222;-57
2023/06/29 07:14:46;;;;;;;10.68;2.78;;;;;;;22.51;50.05;96527.75;2069257;28;20198;-57
2023/06/29 07:15:48;;;;;;;6.40;2.15;;;;;;;22.48;50.43;96528.06;2072462;28;20638;-57
2023/06/29 07:16:50;;;;;;;3.65;2.00;;;;;;;22.43;49.47;96532.97;2069837;28;20194;-57
2023/06/29 07:17:51;;;;;;;6.47;2.30;;;;;;;22.19;49.87;96534.28;2068898;28;20241;-57
2023/06/29 07:19:04;;;;;;;12.18;2.50;;;;;;;21.93;50.64;96532.22;2066167;28;20256;-57
2023/06/29 07:20:10;;;;;;;7.07;2.72;;;;;;;22.00;51.28;96524.53;2068757;28;20214;-57
2023/06/29 07:21:14;;;;;;;9.88;2.35;;;;;;;22.26;51.42;96524.75;2069498;28;20204;-57
2023/06/29 07:22:20;;;;;;;7.82;2.40;;;;;;;22.19;51.50;96528.94;2069497;28;20194;-58
2023/06/29 07:23:24;;;;;;;8.52;2.30;;;;;;;22.23;52.01;96529.50;2069325;28;20209;-57
2023/06/29 07:24:29;;;;;;;7.90;2.05;;;;;;;22.25;51.31;96523.06;2067255;28;20210;-57
2023/06/29 07:25:30;;;;;;;5.32;2.53;;;;;;;22.04;52.72;96527.75;2073589;28;20197;-57
2023/06/29 07:26:32;;;;;;;7.88;2.40;;;;;;;22.04;52.65;96520.59;2076814;28;20729;-58
2023/06/29 07:27:33;;;;;;;7.47;2.50;;;;;;;22.32;52.34;96523.31;2075632;28;20189;-57
2023/06/29 07:28:35;;;;;;;6.70;2.58;;;;;;;22.53;52.47;96530.28;2072272;28;20197;-58
2023/06/29 07:29:36;;;;;;;9.13;2.55;;;;;;;22.64;51.91;96528.28;2069008;28;20281;-58
2023/06/29 07:30:38;;;;;;;6.88;2.88;;;;;;;22.56;51.62;96530.81;2068871;28;20210;-57
2023/06/29 07:31:40;;;;;;;8.88;3.30;;;;;;;22.31;51.86;96524.31;2069786;28;20194;-57
2023/06/29 07:32:41;;;;;;;15.02;2.30;;;;;;;22.44;51.13;96534.66;2070690;28;20202;-57
2023/06/29 07:33:43;;;;;;;8.60;2.85;;;;;;;22.45;51.72;96526.53;2074680;28;20615;-57
2023/06/29 07:34:44;;;;;;;23.58;3.33;;;;;;;22.57;51.52;96529.00;2082845;28;20233;-58
2023/06/29 07:35:46;;;;;;;14.82;3.20;;;;;;;22.45;52.18;96529.19;2081437;28;20249;-57
2023/06/29 07:36:47;;;;;;;6.88;2.50;;;;;;;22.81;51.94;96529.31;2072737;28;20903;-57
2023/06/29 07:37:49;;;;;;;9.77;2.35;;;;;;;22.54;51.30;96527.47;2071236;28;20272;-57
2023/06/29 07:38:51;;;;;;;10.85;2.50;;;;;;;22.57;51.74;96526.34;2068136;28;20314;-57
2023/06/29 07:39:53;;;;;;;9.55;2.83;;;;;;;23.20;50.94;96524.75;2068662;28;20241;-57
2023/06/29 07:40:54;;;;;;;14.88;2.63;;;;;;;23.11;50.73;96521.19;2069988;28;20205;-59
2023/06/29 07:41:56;;;;;;;23.02;3.00;;;;;;;23.41;50.75;96522.66;2074711;28;20252;-59
2023/06/29 07:42:58;;;;;;;5.30;2.55;;;;;;;23.54;50.70;96524.97;2073336;28;20273;-59
2023/06/29 07:44:00;;;;;;;16.67;2.83;;;;;;;23.77;49.10;96519.97;2067494;28;20279;-57
2023/06/29 07:45:01;;;;;;;11.27;2.20;;;;;;;23.46;49.51;96519.53;2072904;28;20551;-57
2023/06/29 07:46:03;;;;;;;14.18;3.13;;;;;;;23.14;50.35;96518.19;2073726;28;20197;-58
2023/06/29 07:47:04;;;;;;;13.55;2.55;;;;;;;23.77;49.03;96514.66;2074287;28;20250;-57
2023/06/29 07:48:06;;;;;;;11.90;2.38;;;;;;;23.84;48.74;96512.19;2072290;28;20198;-58
2023/06/29 07:49:08;;;;;;;12.18;3.15;;;;;;;23.77;48.29;96506.66;2072898;28;20242;-58
2023/06/29 07:50:10;;;;;;;10.95;3.00;;;;;;;23.60;48.17;96511.03;2073176;28;20196;-57
2023/06/29 07:51:12;;;;;;;25.42;2.65;;;;;;;23.73;48.26;96507.97;2067287;28;20286;-58
2023/06/29 07:52:14;;;;;;;9.25;1.92;;;;;;;24.00;47.66;96497.34;2070521;28;20247;-57
2023/06/29 07:53:16;;;;;;;12.77;2.88;;;;;;;24.18;47.88;96506.13;2070912;28;20194;-58
2023/06/29 07:54:18;;;;;;;14.35;2.70;;;;;;;24.53;47.58;96503.47;2067473;28;20230;-58
2023/06/29 07:55:19;;;;;;;11.82;2.67;;;;;;;24.59;47.05;96506.38;2072080;28;20242;-58
2023/06/29 07:56:21;;;;;;;11.15;2.00;;;;;;;24.36;46.35;96500.72;2074123;28;20209;-58
2023/06/29 07:57:23;;;;;;;8.18;1.95;;;;;;;24.50;46.01;96503.81;2072930;28;20198;-57
2023/06/29 07:58:27;;;;;;;5.22;2.30;;;;;;;24.25;45.71;96504.53;2070672;28;20213;-57
2023/06/29 07:59:32;;;;;;;7.32;2.25;;;;;;;24.06;45.78;96507.38;2071177;28;20293;-58
2023/06/29 08:00:34;;;;;;;5.85;2.00;;;;;;;24.02;45.69;96506.84;2071640;28;20214;-57
2023/06/29 08:01:38;;;;;;;7.40;1.98;;;;;;;23.79;46.79;96514.50;2068349;28;20878;-57
2023/06/29 08:02:40;;;;;;;6.05;2.13;;;;;;;23.57;46.77;96513.16;2069871;28;20289;-57
2023/06/29 08:03:44;;;;;;;3.97;1.90;;;;;;;23.60;46.55;96516.34;2066659;28;20236;-58
2023/06/29 08:04:51;;;;;;;7.78;1.70;;;;;;;23.46;46.81;96515.06;2067385;28;20206;-57
2023/06/29 08:05:56;;;;;;;5.38;1.92;;;;;;;23.55;46.58;96512.47;2073761;28;20368;-58
2023/06/29 08:07:00;;;;;;;4.47;1.90;;;;;;;24.18;45.50;96510.63;2070499;28;20601;-57
2023/06/29 08:08:02;;;;;;;4.30;1.92;;;;;;;24.46;45.39;96509.44;2070119;28;20772;-58
2023/06/29 08:09:04;;;;;;;14.82;2.63;;;;;;;24.37;45.57;96506.91;2068860;28;20268;-58
2023/06/29 08:10:06;;;;;;;6.00;1.52;;;;;;;24.45;45.87;96507.81;2070041;28;20895;-57
2023/06/29 08:11:11;;;;;;;8.65;2.00;;;;;;;24.50;45.79;96511.81;2068001;28;20993;-58
2023/06/29 08:12:12;;;;;;;5.45;2.53;;;;;;;24.13;46.13;96514.59;2062937;28;20825;-57
2023/06/29 08:13:15;;;;;;;12.68;2.15;;;;;;;23.81;47.04;96512.50;2063519;28;20259;-58
2023/06/29 08:14:17;;;;;;;9.50;2.20;;;;;;;24.08;47.08;96503.56;2063554;28;20655;-57
2023/06/29 08:15:18;;;;;;;6.75;2.17;;;;;;;23.97;46.57;96506.47;2065087;28;20245;-58
2023/06/29 08:16:21;;;;;;;6.75;1.80;;;;;;;24.10;46.21;96500.75;2066842;28;20205;-58
2023/06/29 08:17:23;;;;;;;7.53;2.00;;;;;;;24.01;46.71;96502.53;2066553;28;20190;-58
2023/06/29 08:18:24;;;;;;;13.43;2.13;;;;;;;23.98;45.93;96504.66;2065916;28;20229;-58
2023/06/29 08:19:25;;;;;;;4.45;1.80;;;;;;;23.78;46.43;96505.66;2065981;28;20274;-58
2023/06/29 08:20:27;;;;;;;5.30;1.95;;;;;;;23.54;47.11;96500.97;2064968;28;20302;-58
2023/06/29 08:21:28;;;;;;;7.13;1.98;;;;;;;23.43;47.78;96506.53;2064494;28;20317;-58
2023/06/29 08:22:30;;;;;;;7.55;2.28;;;;;;;23.60;47.54;96504.84;2062814;28;20275;-57
2023/06/29 08:23:32;;;;;;;11.90;2.28;;;;;;;23.37;47.59;96499.97;2062065;28;20663;-58
2023/06/29 08:24:34;;;;;;;8.35;1.55;;;;;;;23.41;46.92;96500.50;2063533;28;20282;-58
2023/06/29 08:25:35;;;;;;;6.95;1.67;;;;;;;23.78;46.64;96496.81;2063169;28;20210;-57
2023/06/29 08:26:37;;;;;;;6.78;2.20;;;;;;;23.99;47.30;96501.84;2065627;28;20197;-57
2023/06/29 08:27:39;;;;;;;9.05;2.50;;;;;;;24.13;45.91;96497.78;2063234;28;20267;-58
2023/06/29 08:28:41;;;;;;;2.90;1.50;;;;;;;24.49;45.60;96504.81;2060415;28;20259;-58
2023/06/29 08:29:43;;;;;;;7.05;2.40;;;;;;;24.55;45.21;96502.31;2066776;28;20245;-58
2023/06/29 08:30:44;;;;;;;12.45;1.80;;;;;;;24.60;45.27;96505.34;2065262;28;20333;-58
2023/06/29 08:31:46;;;;;;;11.52;1.70;;;;;;;24.71;44.80;96498.94;2064362;28;20249;-58
2023/06/29 08:32:50;;;;;;;4.53;1.95;;;;;;;24.77;45.35;96500.09;2063373;28;20297;-58
2023/06/29 08:33:52;;;;;;;7.65;1.98;;;;;;;24.62;45.47;96495.34;2060989;28;20234;-58
2023/06/29 08:34:53;;;;;;;4.32;2.10;;;;;;;24.68;45.33;96496.56;2064359;28;20222;-58
2023/06/29 08:35:55;;;;;;;5.90;2.20;;;;;;;24.82;45.63;96500.47;2064156;28;20893;-57
2023/06/29 08:36:56;;;;;;;6.47;2.55;;;;;;;24.94;44.97;96499.16;2062347;28;20265;-57
2023/06/29 08:37:58;;;;;;;6.60;2.30;;;;;;;24.93;44.63;96497.50;2060715;28;20210;-57
2023/06/29 08:38:59;;;;;;;11.18;2.08;;;;;;;25.17;44.65;96495.06;2061425;28;20238;-57
2023/06/29 08:40:03;;;;;;;5.65;1.77;;;;;;;25.32;44.81;96497.91;2065362;28;20205;-57
2023/06/29 08:41:05;;;;;;;9.40;2.50;;;;;;;25.49;44.20;96491.63;2064006;28;20257;-57
2023/06/29 08:42:07;;;;;;;11.60;3.10;;;;;;;25.36;44.17;96489.44;2066080;28;20195;-57
2023/06/29 08:43:11;;;;;;;5.22;2.00;;;;;;;25.05;45.15;96494.53;2067476;28;20662;-57
2023/06/29 08:44:13;;;;;;;8.75;2.45;;;;;;;25.04;44.66;96495.50;2067870;28;20226;-57
2023/06/29 08:45:15;;;;;;;6.88;2.20;;;;;;;24.46;46.03;96497.94;2067346;28;20199;-57
2023/06/29 08:46:17;;;;;;;7.97;1.90;;;;;;;24.55;46.11;96498.81;2066807;28;20268;-57
2023/06/29 08:47:18;;;;;;;10.55;2.15;;;;;;;24.65;45.33;96488.88;2066928;28;20202;-57
2023/06/29 08:48:22;;;;;;;11.80;2.40;;;;;;;24.83;45.89;96502.13;2064676;28;20194;-58
2023/06/29 08:49:24;;;;;;;5.15;2.15;;;;;;;24.87;44.94;96502.66;2067265;28;20277;-58
2023/06/29 08:50:26;;;;;;;6.00;2.60;;;;;;;24.82;44.96;96494.28;2067543;28;20376;-57
2023/06/29 08:51:30;;;;;;;7.32;2.30;;;;;;;25.04;44.91;96492.84;2067239;28;20241;-57
2023/06/29 08:52:34;;;;;;;7.60;2.10;;;;;;;25.29;45.07;96490.25;2062963;28;20261;-57
2023/06/29 08:53:39;;;;;;;7.80;2.50;;;;;;;25.56;44.20;96487.28;2061563;28;20194;-57
2023/06/29 08:54:42;;;;;;;12.30;2.10;;;;;;;25.77;44.04;96488.63;2068308;28;20326;-57
2023/06/29 08:55:44;;;;;;;6.85;2.00;;;;;;;25.40;43.94;96493.44;2063734;28;20198;-57
2023/06/29 08:56:46;;;;;;;7.63;2.70;;;;;;;25.44;44.12;96491.28;2066102;28;20199;-58
2023/06/29 08:57:48;;;;;;;15.18;2.50;;;;;;;25.53;43.90;96490.28;2066447;28;20263;-57
2023/06/29 08:58:50;;;;;;;5.40;1.67;;;;;;;25.85;43.61;96491.31;2066259;28;20305;-57
2023/06/29 08:59:51;;;;;;;9.00;2.30;;;;;;;25.96;43.20;96483.94;2065658;28;20278;-57
2023/06/29 09:00:53;;;;;;;5.85;2.15;;;;;;;25.93;43.38;96477.09;2069091;28;20213;-58
2023/06/29 09:01:58;;;;;;;7.07;1.88;;;;;;;25.93;43.67;96490.47;2065321;28;20212;-57
2023/06/29 09:03:02;;;;;;;5.95;2.67;;;;;;;26.01;43.25;96489.59;2066512;28;20209;-57
2023/06/29 09:04:04;;;;;;;9.98;2.55;;;;;;;26.26;42.84;96484.22;2063491;28;20242;-58
2023/06/29 09:05:06;;;;;;;4.55;1.95;;;;;;;26.25;42.56;96480.72;2065240;28;20202;-58
2023/06/29 09:06:09;;;;;;;4.15;2.08;;;;;;;25.97;42.99;96483.75;2066101;28;20288;-58
2023/06/29 09:07:12;;;;;;;6.07;1.92;;;;;;;25.81;42.86;96476.56;2066152;28;20929;-57
2023/06/29 09:08:13;;;;;;;4.85;1.98;;;;;;;25.85;43.09;96477.06;2065573;28;20214;-57
2023/06/29 09:09:15;;;;;;;10.20;2.15;;;;;;;25.89;43.32;96475.72;2064678;28;20227;-58
2023/06/29 09:10:16;;;;;;;9.43;2.65;;;;;;;26.23;42.98;96478.22;2066166;28;20277;-58
2023/06/29 09:11:18;;;;;;;8.10;1.90;;;;;;;26.43;42.81;96477.00;2063994;28;20194;-57
2023/06/29 09:12:27;;;;;;;7.20;2.20;;;;;;;25.77;43.17;96480.59;2064600;28;20198;-57
2023/06/29 09:13:35;;;;;;;7.70;2.00;;;;;;;25.93;43.28;96477.09;2066413;28;20247;-57
2023/06/29 09:14:43;;;;;;;4.38;2.03;;;;;;;25.70;43.57;96476.91;2074913;28;20335;-58
2023/06/29 09:15:45;;;;;;;6.10;2.40;;;;;;;25.46;43.92;96475.06;2073877;28;20201;-57
2023/06/29 09:16:52;;;;;;;4.95;2.00;;;;;;;25.36;43.80;96475.25;2065733;28;20201;-58
2023/06/29 09:17:55;;;;;;;3.35;2.03;;;;;;;25.58;44.23;96479.94;2062915;28;20198;-57
2023/06/29 09:18:57;;;;;;;6.53;1.90;;;;;;;25.36;43.83;96478.75;2065827;28;20221;-58
2023/06/29 09:20:00;;;;;;;11.90;1.75;;;;;;;25.19;44.74;96485.88;2069191;28;20289;-57
2023/06/29 09:21:09;;;;;;;15.07;2.60;;;;;;;25.34;44.34;96471.88;2067089;28;20711;-58
2023/06/29 09:22:14;;;;;;;4.63;2.13;;;;;;;25.35;43.96;96484.25;2064787;28;20207;-57
2023/06/29 09:23:16;;;;;;;8.50;2.25;;;;;;;25.49;44.14;96485.44;2064147;28;20238;-58
2023/06/29 09:24:17;;;;;;;5.88;2.10;;;;;;;25.74;43.65;96483.63;2063818;28;20801;-57
2023/06/29 09:25:21;;;;;;;8.55;2.47;;;;;;;25.80;43.67;96485.63;2065230;28;20555;-57
2023/06/29 09:26:34;;;;;;;6.18;2.30;;;;;;;25.56;43.83;96487.28;2064021;28;20193;-57
2023/06/29 09:27:36;;;;;;;14.75;2.30;;;;;;;25.76;43.89;96484.25;2067908;28;20201;-57
2023/06/29 09:28:44;;;;;;;4.72;2.00;;;;;;;26.53;42.95;96483.00;2061358;28;20231;-58
2023/06/29 09:29:51;;;;;;;9.23;2.13;;;;;;;26.11;42.86;96486.78;2067364;28;20194;-57
2023/06/29 09:30:52;;;;;;;4.25;1.92;;;;;;;26.72;42.42;96485.25;2063432;28;20656;-57
2023/06/29 09:31:57;;;;;;;8.68;2.30;;;;;;;26.98;42.01;96472.59;2064215;28;20715;-57
2023/06/29 09:33:06;;;;;;;3.75;1.85;;;;;;;27.30;41.19;96481.44;2064210;28;20210;-57
2023/06/29 09:34:17;;;;;;;4.43;1.98;;;;;;;27.24;41.29;96480.31;2067703;28;20229;-58
2023/06/29 09:35:22;;;;;;;6.88;1.77;;;;;;;27.35;40.79;96476.38;2066825;28;20207;-58
2023/06/29 09:36:25;;;;;;;6.65;2.20;;;;;;;27.47;40.63;96476.84;2065588;28;20743;-58
2023/06/29 09:37:27;;;;;;;3.35;2.00;;;;;;;28.04;40.43;96480.91;2065530;28;20198;-57
2023/06/29 09:38:31;;;;;;;6.20;1.90;;;;;;;28.18;40.30;96477.41;2063637;28;20230;-58
2023/06/29 09:39:32;;;;;;;8.98;2.33;;;;;;;27.54;39.71;96484.00;2063727;28;21113;-58
2023/06/29 09:40:47;;;;;;;7.50;2.13;;;;;;;27.14;40.23;96482.41;2065516;28;20206;-58
2023/06/29 09:41:58;;;;;;;6.50;2.15;;;;;;;27.77;40.51;96487.66;2065782;28;20202;-58
2023/06/29 09:43:05;;;;;;;3.30;1.52;;;;;;;27.15;40.39;96476.84;2066574;28;20202;-58
2023/06/29 09:44:06;;;;;;;11.63;2.15;;;;;;;26.29;42.05;96470.53;2064429;28;20244;-58
2023/06/29 09:45:12;;;;;;;7.63;2.20;;;;;;;27.07;40.64;96473.38;2065476;28;20292;-58
2023/06/29 09:46:14;;;;;;;3.85;2.03;;;;;;;27.50;40.60;96479.16;2066621;28;20209;-58
2023/06/29 09:47:17;;;;;;;6.18;2.22;;;;;;;27.23;40.52;96475.13;2065479;28;20194;-58
2023/06/29 09:48:22;;;;;;;6.57;2.00;;;;;;;27.23;40.57;96477.81;2064249;28;20199;-57
2023/06/29 09:49:26;;;;;;;5.20;2.13;;;;;;;27.56;40.33;96473.06;2063889;28;20198;-57
2023/06/29 09:50:28;;;;;;;5.25;2.10;;;;;;;27.59;40.03;96474.56;2064452;28;20191;-57
2023/06/29 09:51:30;;;;;;;6.50;1.98;;;;;;;27.64;40.47;96480.22;2063893;28;20849;-58
2023/06/29 09:52:43;;;;;;;4.95;2.35;;;;;;;27.29;40.46;96479.78;2064615;28;20657;-57
2023/06/29 09:53:45;;;;;;;4.72;2.03;;;;;;;27.38;40.28;96479.53;2067212;28;20231;-57
2023/06/29 09:54:49;;;;;;;11.23;2.05;;;;;;;27.00;40.97;96473.25;2066751;28;20720;-57
2023/06/29 09:55:50;;;;;;;6.28;2.55;;;;;;;26.88;40.58;96476.34;2065169;28;20209;-58
2023/06/29 09:56:52;;;;;;;6.88;1.80;;;;;;;27.08;40.56;96473.19;2072557;28;20231;-58
2023/06/29 09:57:56;;;;;;;8.90;2.33;;;;;;;27.18;40.44;96467.63;2076730;28;20640;-58
2023/06/29 09:59:01;;;;;;;3.33;1.60;;;;;;;26.90;40.67;96470.78;2065869;28;20250;-58
2023/06/29 10:00:09;;;;;;;5.03;2.08;;;;;;;26.96;40.61;96455.88;2063921;28;20238;-58
2023/06/29 10:01:10;;;;;;;6.75;2.20;;;;;;;27.60;40.00;96460.97;2062331;28;20206;-58
2023/06/29 10:02:12;;;;;;;4.47;1.63;;;;;;;27.56;40.05;96466.91;2067163;28;20223;-58
2023/06/29 10:03:14;;;;;;;9.15;3.47;;;;;;;27.29;41.14;96463.72;2065553;28;20201;-58
2023/06/29 10:04:16;;;;;;;6.63;2.03;;;;;;;27.50;40.57;96463.06;2063536;28;20222;-57
2023/06/29 10:05:17;;;;;;;2.78;1.60;;;;;;;28.19;39.74;96457.59;2064218;28;20217;-58
2023/06/29 10:06:21;;;;;;;6.60;2.60;;;;;;;28.72;38.70;96464.75;2063281;28;20206;-58
2023/06/29 10:07:23;;;;;;;7.35;2.33;;;;;;;28.60;38.25;96460.84;2066574;28;20260;-58
2023/06/29 10:08:28;;;;;;;4.40;2.10;;;;;;;28.54;38.86;96464.28;2068762;28;20580;-58
2023/06/29 10:09:30;;;;;;;4.75;1.80;;;;;;;28.78;38.48;96465.84;2065022;28;20218;-58
2023/06/29 10:10:34;;;;;;;3.67;2.10;;;;;;;29.13;38.45;96458.81;2067435;28;20198;-58
2023/06/29 10:11:38;;;;;;;5.53;2.00;;;;;;;28.74;38.47;96459.19;2066914;28;20227;-58
2023/06/29 10:12:40;;;;;;;5.25;1.90;;;;;;;28.68;38.62;96458.06;2064516;28;20287;-58
2023/06/29 10:13:47;;;;;;;4.13;1.97;;;;;;;28.81;38.64;96452.88;2064728;28;20259;-58
2023/06/29 10:14:51;;;;;;;5.10;1.87;;;;;;;28.76;38.46;96457.13;2067398;28;20912;-58
2023/06/29 10:15:53;;;;;;;5.97;2.23;;;;;;;29.14;37.52;96452.41;2063192;28;20457;-58
2023/06/29 10:16:55;;;;;;;6.50;2.27;;;;;;;27.98;39.74;96449.41;2064802;28;20439;-58
2023/06/29 10:18:07;;;;;;;6.60;2.40;;;;;;;28.24;39.23;96443.63;2064966;28;21027;-58
2023/06/29 10:19:19;;;;;;;5.30;1.90;;;;;;;27.41;39.91;96451.56;2065465;28;20253;-58
2023/06/29 10:20:24;;;;;;;6.78;2.53;;;;;;;27.30;39.65;96452.81;2066042;28;20202;-58
2023/06/29 10:21:25;;;;;;;5.95;2.40;;;;;;;27.20;40.19;96449.53;2067856;28;20198;-58
2023/06/29 10:22:28;;;;;;;6.15;2.15;;;;;;;27.07;40.28;96442.09;2066112;28;20234;-58
2023/06/29 10:23:31;;;;;;;7.60;2.85;;;;;;;26.68;40.98;96457.16;2057708;28;20203;-58
2023/06/29 10:24:47;;;;;;;4.90;2.42;;;;;;;26.56;41.13;96454.03;2062220;28;20194;-58
2023/06/29 10:25:50;;;;;;;6.88;2.47;;;;;;;26.81;41.23;96448.56;2064232;28;20255;-58
2023/06/29 10:26:54;;;;;;;6.13;2.75;;;;;;;27.40;40.74;96451.75;2061911;28;20629;-58
2023/06/29 10:27:56;;;;;;;6.63;2.40;;;;;;;27.91;39.84;96443.09;2064484;28;20233;-58
2023/06/29 10:28:57;;;;;;;8.73;2.28;;;;;;;28.01;39.57;96454.41;2065189;28;20225;-58
2023/06/29 10:30:04;;;;;;;7.82;2.58;;;;;;;27.83;40.19;96444.88;2064513;28;20199;-60
2023/06/29 10:31:05;;;;;;;5.43;2.30;;;;;;;27.77;39.99;96448.28;2064762;28;20326;-58
2023/06/29 10:32:07;;;;;;;6.40;2.13;;;;;;;27.34;40.42;96447.94;2067979;28;20332;-58
2023/06/29 10:33:09;;;;;;;5.72;2.70;;;;;;;27.13;41.01;96448.56;2064206;28;20209;-58
2023/06/29 10:34:13;;;;;;;7.00;2.58;;;;;;;27.42;40.83;96453.25;2065121;28;20249;-58
2023/06/29 10:35:14;;;;;;;4.55;2.00;;;;;;;27.58;39.67;96448.75;2067264;28;20203;-58
2023/06/29 10:36:19;;;;;;;8.50;2.67;;;;;;;27.79;40.34;96438.16;2062947;28;20194;-58
2023/06/29 10:37:30;;;;;;;4.88;2.17;;;;;;;28.04;39.65;96443.34;2063441;28;20593;-58
2023/06/29 10:38:34;;;;;;;4.63;2.15;;;;;;;27.74;40.83;96442.44;2065257;28;20281;-58
2023/06/29 10:39:42;;;;;;;8.15;2.30;;;;;;;28.02;40.17;96448.88;2065139;28;20263;-58
2023/06/29 10:40:47;;;;;;;8.60;2.80;;;;;;;28.37;40.08;96445.66;2065481;28;20270;-58
2023/06/29 10:41:49;;;;;;;9.90;1.90;;;;;;;28.32;39.51;96440.84;2066184;28;20260;-58
2023/06/29 10:42:52;;;;;;;4.57;2.30;;;;;;;28.93;39.29;96442.47;2066211;28;20202;-58
2023/06/29 10:44:04;;;;;;;5.85;2.78;;;;;;;29.21;38.54;96432.84;2065741;28;20222;-58
2023/06/29 10:45:08;;;;;;;6.85;3.40;;;;;;;29.90;37.98;96428.72;2064775;28;20230;-59
2023/06/29 10:46:13;;;;;;;9.55;2.35;;;;;;;29.49;37.92;96433.75;2066063;28;20216;-58
2023/06/29 10:47:39;;;;;;;4.50;2.43;;;;;;;29.71;37.55;96433.75;2067422;28;20197;-59
2023/06/29 10:48:41;;;;;;;4.20;2.33;;;;;;;29.62;37.58;96430.34;2062015;28;20492;-58
2023/06/29 10:49:55;;;;;;;5.87;2.60;;;;;;;29.37;37.68;96429.06;2061785;28;20493;-58
2023/06/29 10:50:57;;;;;;;4.97;1.93;;;;;;;29.27;38.23;96435.59;2065127;28;20465;-58
2023/06/29 10:52:03;;;;;;;3.37;2.00;;;;;;;28.74;38.61;96427.78;2065360;28;20484;-59
2023/06/29 10:53:08;;;;;;;8.93;3.07;;;;;;;28.79;38.77;96428.03;2063298;28;20518;-58
2023/06/29 10:54:09;;;;;;;6.90;2.50;;;;;;;28.94;38.15;96427.19;2063507;28;20954;-58
2023/06/29 10:55:31;;;;;;;7.60;3.10;;;;;;;29.15;39.15;96435.28;2065582;28;20911;-59
2023/06/29 10:56:32;;;;;;;6.00;2.75;;;;;;;28.78;38.44;96429.06;2066694;28;20439;-58
2023/06/29 10:57:34;;;;;;;5.23;2.70;;;;;;;28.93;38.44;96426.34;2066339;28;20704;-58
2023/06/29 10:58:37;;;;;;;11.20;3.00;;;;;;;29.36;37.80;96432.78;2061734;28;20480;-58
2023/06/29 10:59:39;;;;;;;7.50;3.72;;;;;;;29.08;37.74;96428.97;2062312;28;20489;-58
2023/06/29 11:00:41;;;;;;;5.73;3.50;;;;;;;29.12;37.52;96427.56;2060806;28;20206;-58
2023/06/29 11:01:43;;;;;;;7.47;3.77;;;;;;;29.09;38.10;96433.34;2064014;28;20428;-58
2023/06/29 11:02:47;;;;;;;6.67;3.10;;;;;;;29.07;37.60;96430.00;2060869;28;20432;-58
2023/06/29 11:03:49;;;;;;;6.55;2.80;;;;;;;29.07;38.20;96419.25;2063210;28;20465;-63
2023/06/29 11:04:51;;;;;;;6.67;3.10;;;;;;;28.41;39.01;96419.28;2061468;28;20205;-57
2023/06/29 11:05:54;;;;;;;7.43;2.80;;;;;;;29.25;38.00;96423.38;2061933;28;20506;-58
2023/06/29 11:06:55;;;;;;;6.15;3.10;;;;;;;29.60;36.99;96418.94;2067045;28;20438;-58
2023/06/29 11:07:57;;;;;;;12.37;2.80;;;;;;;29.94;36.98;96416.53;2065403;28;20199;-58
2023/06/29 11:09:10;;;;;;;6.70;3.50;;;;;;;30.43;36.66;96418.28;2065394;28;20568;-58
2023/06/29 11:10:11;;;;;;;8.80;2.93;;;;;;;30.81;36.22;96416.19;2066418;28;20750;-58
2023/06/29 11:11:16;;;;;;;4.47;2.63;;;;;;;31.26;35.97;96413.81;2061087;28;20903;-58
2023/06/29 11:12:18;;;;;;;4.67;2.90;;;;;;;31.70;35.39;96403.50;2059841;28;20425;-58
2023/06/29 11:13:20;;;;;;;5.70;2.90;;;;;;;31.92;35.02;96413.03;2061258;28;20971;-58
2023/06/29 11:14:22;;;;;;;7.00;3.20;;;;;;;31.38;35.20;96412.19;2059674;28;20464;-59
2023/06/29 11:15:23;;;;;;;4.37;2.83;;;;;;;31.03;35.59;96403.38;2066258;28;20573;-58
2023/06/29 11:16:25;;;;;;;6.47;2.90;;;;;;;30.97;35.60;96404.19;2065217;28;20435;-59
2023/06/29 11:17:26;;;;;;;5.37;2.90;;;;;;;30.85;35.84;96402.09;2066727;28;20431;-58
2023/06/29 11:18:31;;;;;;;7.27;2.83;;;;;;;31.33;35.36;96403.88;2064074;28;20515;-58
2023/06/29 11:19:33;;;;;;;7.93;2.80;;;;;;;31.82;35.07;96404.56;2065284;28;20515;-58
2023/06/29 11:20:38;;;;;;;7.83;3.20;;;;;;;31.50;35.37;96407.00;2067024;28;20436;-58
2023/06/29 11:21:40;;;;;;;5.80;2.60;;;;;;;31.64;35.73;96398.94;2067581;28;20941;-58
2023/06/29 11:22:43;;;;;;;7.43;2.93;;;;;;;31.35;35.63;96403.66;2064112;28;20814;-58
2023/06/29 11:23:51;;;;;;;6.70;3.10;;;;;;;31.56;35.41;96397.25;2066534;28;20531;-58
2023/06/29 11:24:52;;;;;;;9.30;3.20;;;;;;;31.80;35.11;96405.81;2064869;28;20940;-58
2023/06/29 11:25:59;;;;;;;4.67;2.73;;;;;;;31.53;35.23;96403.09;2065751;28;20435;-58
2023/06/29 11:27:01;;;;;;;6.43;2.87;;;;;;;30.89;35.98;96397.97;2063582;28;20515;-58
2023/06/29 11:28:03;;;;;;;5.40;2.70;;;;;;;31.42;35.93;96397.25;2067195;28;21149;-59
2023/06/29 11:29:07;;;;;;;5.27;2.60;;;;;;;31.74;35.37;96400.19;2064960;28;20626;-58
2023/06/29 11:30:10;;;;;;;7.60;3.33;;;;;;;31.44;35.40;96405.16;2065098;28;20480;-58
2023/06/29 11:31:11;;;;;;;8.83;2.70;;;;;;;31.09;36.00;96400.72;2065959;28;20526;-58
2023/06/29 11:32:15;;;;;;;8.03;2.80;;;;;;;30.86;35.87;96397.56;2065519;28;20519;-58
2023/06/29 11:33:20;;;;;;;6.20;2.40;;;;;;;30.49;36.40;96394.28;2062643;28;20509;-58
2023/06/29 11:34:35;;;;;;;4.97;2.70;;;;;;;30.16;37.12;96398.47;2071097;28;20534;-58
2023/06/29 11:35:36;;;;;;;5.20;2.30;;;;;;;30.26;37.12;96404.31;2070257;28;20434;-58
2023/06/29 11:36:38;;;;;;;5.67;2.67;;;;;;;30.15;37.47;96393.28;2067854;28;20459;-58
2023/06/29 11:37:40;;;;;;;5.90;2.37;;;;;;;29.62;37.93;96400.78;2066909;28;20643;-58
2023/06/29 11:38:42;;;;;;;7.73;2.40;;;;;;;29.61;38.04;96401.78;2065351;28;20455;-58
2023/06/29 11:39:48;;;;;;;7.40;2.83;;;;;;;29.17;38.65;96400.94;2068104;28;20907;-58
2023/06/29 11:41:00;;;;;;;4.53;2.27;;;;;;;29.12;38.78;96405.25;2063534;28;20518;-58
2023/06/29 11:42:17;;;;;;;6.10;3.00;;;;;;;28.75;39.86;96407.13;2068510;28;20580;-58
2023/06/29 11:43:19;;;;;;;5.17;2.27;;;;;;;28.58;40.26;96401.09;2067107;28;20431;-58
2023/06/29 11:44:25;;;;;;;7.07;2.50;;;;;;;28.61;41.13;96408.81;2063269;28;21152;-58
2023/06/29 11:45:26;;;;;;;7.23;2.90;;;;;;;28.61;40.92;96409.63;2066012;28;20515;-58
2023/06/29 11:46:35;;;;;;;10.87;2.37;;;;;;;28.26;41.66;96406.69;2066116;28;20484;-59
2023/06/29 11:47:37;;;;;;;14.27;4.10;;;;;;;27.73;43.14;96411.25;2067283;28;20513;-58
2023/06/29 11:48:38;;;;;;;8.80;2.50;;;;;;;27.90;42.70;96406.59;2067116;28;20468;-58
2023/06/29 11:49:40;;;;;;;11.03;2.33;;;;;;;27.74;43.37;96412.94;2063425;28;20462;-58
2023/06/29 11:50:41;;;;;;;4.60;2.27;;;;;;;27.58;43.67;96411.22;2062708;28;20792;-58
2023/06/29 11:51:43;;;;;;;6.97;2.40;;;;;;;27.73;43.82;96412.13;2066897;28;20788;-58
2023/06/29 11:52:45;;;;;;;14.67;2.40;;;;;;;27.69;43.71;96414.31;2065374;28;20427;-58